Time;durP1;ratioP1;P1;durP2;ratioP2;P2;SDS_P1;SDS_P2;PMS_P1;PMS_P2;Temp;Humidity;BMP_temperature;BMP_pressure;BME280_temperature;BME280_humidity;BME280_pressure;Samples;Min_cycle;Max_cycle;Signal;HPM_P1;HPM_P2
2021/12/01 00:01:48;;;;;;;1.70;1.70;;;;;;;-5.32;64.36;99759.44;6142514;29;20193;-75
2021/12/01 00:04:53;;;;;;;1.77;1.77;;;;;;;-5.14;63.92;99755.06;6142792;29;20222;-74
2021/12/01 00:08:00;;;;;;;1.90;1.80;;;;;;;-5.36;63.47;99759.84;6143084;29;20238;-74
2021/12/01 00:11:05;;;;;;;2.30;1.87;;;;;;;-5.36;63.64;99765.16;6142737;29;20191;-74
2021/12/01 00:14:10;;;;;;;2.20;2.20;;;;;;;-5.43;64.06;99770.22;6143291;29;20255;-74
2021/12/01 00:17:15;;;;;;;1.77;1.77;;;;;;;-5.43;63.88;99772.88;6143147;29;20191;-74
2021/12/01 00:20:21;;;;;;;1.63;1.63;;;;;;;-5.72;64.61;99785.31;6143433;29;20195;-74
2021/12/01 00:23:27;;;;;;;1.80;1.80;;;;;;;-5.88;65.22;99774.47;6143399;29;20222;-75
2021/12/01 00:26:31;;;;;;;1.30;1.30;;;;;;;-5.78;65.02;99775.28;6142539;29;20530;-74
2021/12/01 00:29:36;;;;;;;1.90;1.90;;;;;;;-5.78;65.14;99775.28;6142056;29;20192;-74
2021/12/01 00:32:40;;;;;;;1.43;1.43;;;;;;;-5.86;65.37;99773.34;6143122;29;20230;-74
2021/12/01 00:35:45;;;;;;;1.47;1.47;;;;;;;-5.71;65.07;99777.22;6141892;29;20192;-74
2021/12/01 00:38:51;;;;;;;1.43;1.43;;;;;;;-5.57;65.24;99773.28;6143035;29;20198;-75
2021/12/01 00:41:56;;;;;;;1.63;1.63;;;;;;;-5.67;64.79;99777.78;6142884;29;20227;-74
2021/12/01 00:45:07;;;;;;;1.70;1.70;;;;;;;-5.55;64.79;99771.38;6142831;29;20220;-74
2021/12/01 00:48:17;;;;;;;1.40;1.40;;;;;;;-5.23;64.11;99771.03;6141633;29;20192;-74
2021/12/01 00:51:21;;;;;;;1.80;1.80;;;;;;;-5.38;64.16;99773.28;6142464;29;20295;-75
2021/12/01 00:54:27;;;;;;;1.67;1.67;;;;;;;-5.17;64.07;99781.94;6141369;29;20499;-74
2021/12/01 00:57:31;;;;;;;2.13;1.90;;;;;;;-5.13;63.96;99772.69;6142593;29;20189;-74
2021/12/01 01:00:36;;;;;;;1.70;1.70;;;;;;;-5.09;64.07;99774.09;6142127;29;20191;-74
2021/12/01 01:03:40;;;;;;;1.77;1.77;;;;;;;-5.17;64.29;99776.63;6142244;29;20239;-74
2021/12/01 01:06:45;;;;;;;1.70;1.70;;;;;;;-5.36;64.86;99776.66;6140832;29;20266;-74
2021/12/01 01:09:52;;;;;;;6.13;1.90;;;;;;;-5.55;66.17;99768.69;6141344;29;20198;-74
2021/12/01 01:16:25;;;;;;;1.90;1.90;;;;;;;-4.86;64.52;99773.75;6140978;29;20192;-74
2021/12/01 01:19:30;;;;;;;1.73;1.70;;;;;;;-4.86;65.30;99781.72;6140934;29;20422;-75
2021/12/01 01:22:34;;;;;;;1.87;1.70;;;;;;;-4.91;65.75;99776.84;6140878;29;20220;-74
2021/12/01 01:25:40;;;;;;;1.70;1.60;;;;;;;-4.84;65.99;99782.41;6142224;29;20234;-74
2021/12/01 01:28:45;;;;;;;1.73;1.70;;;;;;;-4.86;66.35;99781.72;6140910;29;20196;-74
2021/12/01 01:31:51;;;;;;;1.70;1.70;;;;;;;-4.77;66.68;99772.88;6141753;29;20196;-74
2021/12/01 01:34:55;;;;;;;1.93;1.93;;;;;;;-4.61;66.44;99767.75;6141678;29;20199;-75
2021/12/01 01:37:59;;;;;;;1.97;1.87;;;;;;;-4.60;66.84;99780.09;6141699;29;20188;-75
2021/12/01 01:41:08;;;;;;;2.13;2.03;;;;;;;-4.76;67.82;99758.59;6141598;29;20188;-74
2021/12/01 01:44:12;;;;;;;3.60;1.93;;;;;;;-5.06;68.83;99768.47;6141488;29;20195;-75
2021/12/01 01:47:17;;;;;;;3.17;1.90;;;;;;;-4.88;68.57;99770.41;6140392;29;20239;-74
2021/12/01 01:50:34;;;;;;;1.63;1.63;;;;;;;-4.54;67.68;99763.53;6141733;29;20318;-75
2021/12/01 01:53:39;;;;;;;1.90;1.80;;;;;;;-4.48;67.35;99776.25;6141446;29;20196;-74
2021/12/01 01:56:45;;;;;;;1.70;1.60;;;;;;;-4.36;67.53;99767.09;6141297;29;20232;-74
2021/12/01 01:59:50;;;;;;;2.13;2.00;;;;;;;-4.23;66.90;99764.91;6141018;29;20192;-74
2021/12/01 02:02:56;;;;;;;1.90;1.90;;;;;;;-4.28;67.32;99769.84;6141675;29;20196;-74
2021/12/01 02:06:01;;;;;;;2.03;2.03;;;;;;;-4.22;67.27;99757.75;6140681;29;20216;-74
2021/12/01 02:09:07;;;;;;;2.07;1.73;;;;;;;-3.99;66.79;99751.88;6141432;29;20232;-75
2021/12/01 02:12:13;;;;;;;1.83;1.77;;;;;;;-3.95;66.66;99760.38;6141588;29;20251;-75
2021/12/01 02:15:17;;;;;;;1.80;1.80;;;;;;;-4.23;67.94;99762.25;6141617;29;20231;-75
2021/12/01 02:18:22;;;;;;;2.80;2.10;;;;;;;-4.35;68.45;99763.44;6140277;29;20268;-75
2021/12/01 02:21:29;;;;;;;2.07;2.03;;;;;;;-4.18;67.83;99762.63;6142073;29;20253;-75
2021/12/01 02:24:34;;;;;;;1.97;1.87;;;;;;;-3.96;67.25;99764.91;6145925;29;20301;-75
2021/12/01 02:27:38;;;;;;;1.90;1.90;;;;;;;-4.13;67.53;99763.03;6145002;29;20288;-74
2021/12/01 02:30:42;;;;;;;1.70;1.70;;;;;;;-4.27;67.94;99755.56;6145594;29;20206;-74
2021/12/01 02:33:47;;;;;;;1.60;1.60;;;;;;;-4.29;68.23;99756.69;6144513;29;20479;-74
2021/12/01 02:36:55;;;;;;;1.90;1.90;;;;;;;-4.34;68.57;99759.81;6145096;29;20193;-74
2021/12/01 02:39:59;;;;;;;2.13;2.03;;;;;;;-4.21;68.44;99754.94;6144441;29;20204;-75
2021/12/01 02:43:04;;;;;;;1.80;1.80;;;;;;;-4.14;68.57;99750.72;6145211;29;20189;-74
2021/12/01 02:46:08;;;;;;;2.00;2.00;;;;;;;-4.18;68.93;99751.97;6144237;29;20527;-75
2021/12/01 02:49:13;;;;;;;1.77;1.70;;;;;;;-4.57;69.82;99745.22;6145510;29;20238;-75
2021/12/01 02:52:19;;;;;;;2.00;1.90;;;;;;;-4.47;70.33;99753.97;6144132;29;20360;-74
2021/12/01 02:55:25;;;;;;;1.80;1.80;;;;;;;-4.60;70.76;99753.47;6143942;29;20435;-74
2021/12/01 02:58:32;;;;;;;1.77;1.63;;;;;;;-4.46;70.39;99745.84;6144919;29;20192;-75
2021/12/01 03:01:36;;;;;;;1.83;1.80;;;;;;;-4.64;71.01;99742.28;6144960;29;20188;-74
2021/12/01 03:04:41;;;;;;;1.70;1.70;;;;;;;-4.82;71.59;99753.84;6144725;29;20267;-74
2021/12/01 03:07:47;;;;;;;1.73;1.70;;;;;;;-4.84;71.62;99747.81;6144745;29;20255;-74
2021/12/01 03:10:54;;;;;;;2.13;2.03;;;;;;;-4.91;71.19;99754.72;6143647;29;20188;-74
2021/12/01 03:13:58;;;;;;;1.97;1.83;;;;;;;-4.90;71.03;99767.03;6144937;29;20188;-74
2021/12/01 03:17:03;;;;;;;1.97;1.90;;;;;;;-4.94;71.10;99745.22;6144061;29;20546;-74
2021/12/01 03:20:14;;;;;;;2.00;2.00;;;;;;;-4.75;70.14;99750.44;6143322;29;20550;-75
2021/12/01 03:23:20;;;;;;;1.87;1.87;;;;;;;-4.59;69.85;99749.81;6144505;29;20189;-74
2021/12/01 03:26:25;;;;;;;1.90;1.90;;;;;;;-4.60;68.98;99745.50;6144392;29;20243;-74
2021/12/01 03:29:29;;;;;;;2.33;2.23;;;;;;;-4.57;68.34;99753.19;6143303;29;20204;-74
2021/12/01 03:32:33;;;;;;;1.80;1.80;;;;;;;-4.60;67.74;99753.47;6143904;29;20270;-74
2021/12/01 03:35:40;;;;;;;1.47;1.47;;;;;;;-4.32;66.93;99752.50;6143512;29;20199;-74
2021/12/01 03:38:46;;;;;;;1.70;1.70;;;;;;;-4.41;67.10;99753.38;6143087;29;20361;-74
2021/12/01 03:41:50;;;;;;;2.00;1.90;;;;;;;-4.19;66.68;99758.31;6143928;29;20220;-75
2021/12/01 03:44:56;;;;;;;1.83;1.77;;;;;;;-4.01;65.49;99745.03;6142904;29;20193;-74
2021/12/01 03:48:00;;;;;;;1.83;1.83;;;;;;;-4.13;65.77;99749.69;6143774;29;20248;-74
2021/12/01 03:51:04;;;;;;;1.53;1.53;;;;;;;-4.17;66.42;99756.34;6143769;29;20188;-75
2021/12/01 03:54:11;;;;;;;1.80;1.77;;;;;;;-4.27;66.52;99760.03;6144326;29;20189;-74
2021/12/01 03:57:17;;;;;;;2.10;2.00;;;;;;;-4.06;66.22;99753.47;6143764;29;20236;-74
2021/12/01 04:00:21;;;;;;;1.90;1.80;;;;;;;-4.04;66.21;99755.97;6142513;29;20480;-75
2021/12/01 04:03:25;;;;;;;1.93;1.83;;;;;;;-3.99;66.30;99749.22;6142538;29;20387;-74
2021/12/01 04:06:29;;;;;;;3.37;2.03;;;;;;;-4.19;67.44;99755.66;6142577;29;20277;-74
2021/12/01 04:09:37;;;;;;;2.30;2.27;;;;;;;-4.18;67.73;99753.81;6143288;29;20188;-74
2021/12/01 04:12:42;;;;;;;2.33;2.20;;;;;;;-4.07;68.19;99746.47;6143276;29;20189;-74
2021/12/01 04:15:47;;;;;;;1.87;1.77;;;;;;;-4.16;68.32;99747.34;6143210;29;20486;-74
2021/12/01 04:18:51;;;;;;;2.00;2.00;;;;;;;-4.09;68.34;99737.78;6143405;29;20195;-74
2021/12/01 04:21:56;;;;;;;2.30;2.20;;;;;;;-4.27;68.98;99739.56;6142830;29;20221;-74
2021/12/01 04:25:02;;;;;;;2.30;2.20;;;;;;;-4.49;69.90;99750.59;6142780;29;20236;-74
2021/12/01 04:28:06;;;;;;;2.10;2.10;;;;;;;-4.26;69.59;99746.56;6143150;29;20292;-75
2021/12/01 04:31:10;;;;;;;2.10;2.10;;;;;;;-4.29;69.88;99754.03;6142744;29;20259;-74
2021/12/01 04:34:15;;;;;;;2.10;2.10;;;;;;;-4.33;70.31;99756.13;6141928;29;20284;-74
2021/12/01 04:37:19;;;;;;;1.90;1.90;;;;;;;-4.15;70.00;99753.50;6142765;29;20194;-75
2021/12/01 04:40:25;;;;;;;2.03;1.93;;;;;;;-3.92;69.66;99758.25;6142697;29;20188;-74
2021/12/01 04:43:30;;;;;;;5.43;2.00;;;;;;;-3.93;68.67;99753.91;6142909;29;20197;-74
2021/12/01 04:46:40;;;;;;;2.10;2.10;;;;;;;-4.16;69.56;99760.66;6140621;29;20455;-75
2021/12/01 04:49:44;;;;;;;1.90;1.90;;;;;;;-4.20;69.00;99751.31;6141596;29;20361;-74
2021/12/01 04:52:49;;;;;;;2.17;2.07;;;;;;;-4.27;69.33;99749.38;6142398;29;20200;-74
2021/12/01 04:55:55;;;;;;;2.13;2.03;;;;;;;-4.14;68.90;99750.72;6142458;29;20196;-74
2021/12/01 04:58:59;;;;;;;2.00;1.90;;;;;;;-4.06;68.63;99763.28;6141297;29;20314;-74
2021/12/01 05:02:04;;;;;;;2.07;1.97;;;;;;;-4.47;69.30;99753.97;6141452;29;20450;-74
2021/12/01 05:05:09;;;;;;;2.00;2.00;;;;;;;-4.33;68.65;99758.81;6141294;29;20189;-74
2021/12/01 05:08:16;;;;;;;2.00;1.90;;;;;;;-4.25;68.59;99753.56;6141527;29;20244;-76
2021/12/01 05:11:21;;;;;;;4.20;1.93;;;;;;;-4.27;67.42;99755.56;6142373;29;20197;-74
2021/12/01 05:14:45;;;;;;;1.80;1.70;;;;;;;-4.45;66.94;99752.00;6142248;29;20189;-75
2021/12/01 05:17:50;;;;;;;2.00;1.83;;;;;;;-4.58;67.50;99756.84;6142262;29;20307;-75
2021/12/01 05:20:54;;;;;;;2.37;2.00;;;;;;;-4.57;68.11;99755.84;6141839;29;20188;-75
2021/12/01 05:23:58;;;;;;;1.67;1.67;;;;;;;-4.72;68.20;99751.97;6141868;29;20223;-75
2021/12/01 05:27:05;;;;;;;1.70;1.70;;;;;;;-4.39;67.79;99746.06;6141599;29;20228;-75
2021/12/01 05:30:10;;;;;;;3.03;1.60;;;;;;;-4.57;67.84;99737.22;6141752;29;20251;-75
2021/12/01 05:33:15;;;;;;;2.03;1.80;;;;;;;-4.30;66.90;99739.03;6142004;29;20192;-74
2021/12/01 05:36:21;;;;;;;1.80;1.70;;;;;;;-4.18;66.80;99738.66;6140528;29;20442;-74
2021/12/01 05:39:26;;;;;;;2.10;2.10;;;;;;;-4.20;66.03;99739.81;6141802;29;20272;-75
2021/12/01 05:42:31;;;;;;;1.53;1.53;;;;;;;-4.36;66.01;99735.13;6140655;29;20480;-74
2021/12/01 05:45:38;;;;;;;1.80;1.80;;;;;;;-4.49;66.67;99745.28;6140589;29;20229;-75
2021/12/01 05:48:42;;;;;;;8.80;2.03;;;;;;;-4.29;66.33;99741.56;6140518;29;20307;-75
2021/12/01 05:51:47;;;;;;;2.10;1.93;;;;;;;-4.17;65.96;99740.34;6141685;29;20229;-74
2021/12/01 05:54:51;;;;;;;4.07;1.80;;;;;;;-4.15;65.96;99733.03;6141586;29;20189;-74
2021/12/01 05:57:57;;;;;;;5.67;1.77;;;;;;;-4.17;65.08;99743.00;6147522;29;20358;-75
2021/12/01 06:01:01;;;;;;;1.60;1.60;;;;;;;-4.24;64.66;99749.09;6148848;29;20187;-75
2021/12/01 06:04:06;;;;;;;5.40;1.90;;;;;;;-4.18;65.15;99748.47;6149364;29;20192;-74
2021/12/01 06:07:12;;;;;;;4.23;1.90;;;;;;;-4.61;66.34;99751.78;6148038;29;20231;-74
2021/12/01 06:10:19;;;;;;;1.90;1.90;;;;;;;-4.83;67.44;99744.19;6148335;29;20188;-74
2021/12/01 06:13:25;;;;;;;2.80;1.97;;;;;;;-4.74;67.11;99749.47;6147986;29;20188;-74
2021/12/01 06:16:29;;;;;;;3.43;1.53;;;;;;;-4.68;67.04;99740.06;6149359;29;20192;-74
2021/12/01 06:19:34;;;;;;;1.60;1.60;;;;;;;-4.64;66.73;99736.97;6147902;29;20199;-74
2021/12/01 06:22:38;;;;;;;1.90;1.80;;;;;;;-4.61;66.47;99731.34;6148810;29;20227;-74
2021/12/01 06:25:43;;;;;;;1.90;1.80;;;;;;;-4.46;66.43;99737.00;6148294;29;20205;-74
2021/12/01 06:28:48;;;;;;;3.03;1.90;;;;;;;-4.52;66.43;99735.78;6148871;29;20299;-74
2021/12/01 06:31:53;;;;;;;6.13;2.30;;;;;;;-4.76;67.50;99747.94;6148098;29;20221;-74
2021/12/01 06:34:57;;;;;;;1.83;1.83;;;;;;;-4.78;67.80;99752.56;6147722;29;20431;-74
2021/12/01 06:38:02;;;;;;;2.40;2.20;;;;;;;-4.82;68.40;99743.19;6148643;29;20200;-74
2021/12/01 06:41:07;;;;;;;6.70;2.03;;;;;;;-5.19;68.53;99756.47;6147472;29;20200;-75
2021/12/01 06:44:14;;;;;;;2.20;2.10;;;;;;;-5.10;69.27;99758.25;6148163;29;20223;-74
2021/12/01 06:47:18;;;;;;;4.23;1.80;;;;;;;-5.35;69.61;99754.41;6148813;29;20300;-76
2021/12/01 06:50:23;;;;;;;2.97;2.37;;;;;;;-5.07;69.28;99756.16;6148835;29;20215;-74
2021/12/01 06:53:29;;;;;;;3.23;2.10;;;;;;;-5.09;69.37;99763.47;6149359;29;20198;-74
2021/12/01 06:56:33;;;;;;;1.57;1.57;;;;;;;-5.13;69.17;99767.38;6147636;29;20219;-74
2021/12/01 06:59:39;;;;;;;2.13;1.90;;;;;;;-4.89;68.79;99752.75;6148439;29;20200;-74
2021/12/01 07:02:44;;;;;;;4.50;1.97;;;;;;;-4.81;68.65;99748.38;6147492;29;20500;-74
2021/12/01 07:05:49;;;;;;;3.80;2.23;;;;;;;-4.95;69.00;99774.59;6147529;29;20391;-75
2021/12/01 07:08:54;;;;;;;2.20;2.10;;;;;;;-5.11;69.63;99764.59;6143861;29;20323;-74
2021/12/01 07:11:59;;;;;;;2.13;2.13;;;;;;;-5.36;70.07;99771.31;6143645;29;20195;-75
2021/12/01 07:15:06;;;;;;;1.73;1.73;;;;;;;-5.14;70.12;99768.38;6144844;29;20192;-75
2021/12/01 07:18:19;;;;;;;2.23;2.10;;;;;;;-5.20;70.23;99771.59;6144117;29;20200;-74
2021/12/01 07:21:23;;;;;;;7.63;2.20;;;;;;;-5.15;70.00;99774.66;6143499;29;20228;-76
2021/12/01 07:24:29;;;;;;;3.87;2.17;;;;;;;-5.30;70.41;99773.44;6144704;29;20283;-74
2021/12/01 07:27:33;;;;;;;2.93;2.07;;;;;;;-5.45;70.96;99782.81;6143487;29;20445;-75
2021/12/01 07:30:39;;;;;;;2.73;2.00;;;;;;;-5.46;71.58;99786.44;6143355;29;20283;-76
2021/12/01 07:33:44;;;;;;;3.80;2.70;;;;;;;-5.29;71.01;99775.09;6143974;29;20275;-74
2021/12/01 07:36:48;;;;;;;3.90;2.10;;;;;;;-4.96;70.01;99772.94;6145093;29;20193;-76
2021/12/01 07:39:57;;;;;;;2.13;2.07;;;;;;;-4.93;70.02;99783.28;6144925;29;20193;-75
2021/12/01 07:43:01;;;;;;;2.10;2.00;;;;;;;-5.06;70.15;99795.06;6144159;29;20196;-75
2021/12/01 07:46:07;;;;;;;5.30;2.10;;;;;;;-5.18;70.51;99790.91;6143519;29;20191;-74
2021/12/01 07:49:12;;;;;;;2.80;2.60;;;;;;;-5.02;70.57;99784.13;6144324;29;20243;-78
2021/12/01 07:52:16;;;;;;;2.40;2.30;;;;;;;-4.72;69.73;99787.41;6142977;29;20205;-74
2021/12/01 07:55:20;;;;;;;5.70;2.40;;;;;;;-4.58;68.88;99788.78;6143967;29;20192;-74
2021/12/01 07:58:25;;;;;;;2.30;2.20;;;;;;;-4.82;68.36;99780.44;6143548;29;20195;-74
2021/12/01 08:01:30;;;;;;;2.57;2.47;;;;;;;-4.94;68.69;99784.25;6142835;29;20239;-74
2021/12/01 08:04:39;;;;;;;2.50;2.40;;;;;;;-4.69;68.58;99772.97;6143104;29;20264;-75
2021/12/01 08:07:43;;;;;;;2.27;2.20;;;;;;;-4.49;67.90;99767.44;6143143;29;20488;-75
2021/12/01 08:10:50;;;;;;;3.80;2.10;;;;;;;-4.45;67.45;99763.50;6143320;29;20219;-75
2021/12/01 08:13:55;;;;;;;2.20;2.10;;;;;;;-4.68;68.52;99766.69;6142806;29;20265;-75
2021/12/01 08:17:00;;;;;;;3.97;2.20;;;;;;;-4.84;69.34;99782.41;6142846;29;20204;-75
2021/12/01 08:20:06;;;;;;;2.20;2.10;;;;;;;-4.76;69.25;99779.88;6142033;29;20204;-75
2021/12/01 08:23:11;;;;;;;2.37;2.20;;;;;;;-4.94;69.61;99792.25;6142977;29;20188;-75
2021/12/01 08:26:15;;;;;;;1.90;1.70;;;;;;;-4.65;69.26;99783.19;6142347;29;20208;-74
2021/12/01 08:29:20;;;;;;;3.70;2.17;;;;;;;-4.46;68.80;99784.94;6141758;29;20444;-75
2021/12/01 08:32:25;;;;;;;2.53;2.43;;;;;;;-4.56;69.10;99781.47;6142568;29;20231;-76
2021/12/01 08:35:29;;;;;;;2.20;2.20;;;;;;;-4.51;69.22;99784.53;6141539;29;20400;-75
2021/12/01 08:38:34;;;;;;;2.27;2.17;;;;;;;-4.52;69.58;99777.56;6142513;29;20198;-77
2021/12/01 08:41:40;;;;;;;2.57;2.20;;;;;;;-4.33;69.29;99782.75;6141350;29;20398;-76
2021/12/01 08:44:45;;;;;;;2.20;2.00;;;;;;;-4.15;69.12;99781.00;6142530;29;20195;-75
2021/12/01 08:47:51;;;;;;;2.10;2.10;;;;;;;-4.10;69.24;99780.53;6142528;29;20260;-75
2021/12/01 08:50:56;;;;;;;2.40;2.20;;;;;;;-4.05;69.05;99776.44;6141469;29;20221;-75
2021/12/01 08:54:00;;;;;;;2.50;2.40;;;;;;;-3.90;68.85;99774.94;6142863;29;20188;-76
2021/12/01 08:57:05;;;;;;;2.33;2.23;;;;;;;-4.27;70.61;99760.88;6142057;29;20191;-76
2021/12/01 09:00:12;;;;;;;2.00;1.90;;;;;;;-4.26;70.78;99773.19;6142121;29;20225;-76
2021/12/01 09:03:25;;;;;;;2.53;2.33;;;;;;;-4.13;70.71;99757.69;6141724;29;20236;-76
2021/12/01 09:06:30;;;;;;;2.03;2.03;;;;;;;-4.11;70.67;99750.38;6141069;29;20197;-76
2021/12/01 09:09:34;;;;;;;2.83;2.13;;;;;;;-4.20;71.55;99751.31;6141715;29;20247;-76
2021/12/01 09:12:41;;;;;;;2.10;2.00;;;;;;;-4.40;72.41;99752.41;6141576;29;20353;-74
2021/12/01 09:15:45;;;;;;;3.17;2.87;;;;;;;-4.48;72.39;99747.81;6141287;29;20197;-75
2021/12/01 09:18:51;;;;;;;2.70;2.53;;;;;;;-4.52;73.05;99748.28;6140498;29;20388;-76
2021/12/01 09:21:56;;;;;;;3.70;2.33;;;;;;;-4.44;72.63;99741.19;6140643;29;20465;-75
2021/12/01 09:25:00;;;;;;;2.60;2.50;;;;;;;-4.23;71.80;99740.94;6141574;29;20210;-75
2021/12/01 09:28:05;;;;;;;2.63;2.50;;;;;;;-4.04;71.62;99730.19;6141280;29;20188;-75
2021/12/01 09:31:10;;;;;;;4.23;2.40;;;;;;;-4.18;71.84;99733.34;6140292;29;20614;-75
2021/12/01 09:34:16;;;;;;;2.20;2.20;;;;;;;-4.25;72.30;99736.75;6142181;29;20196;-75
2021/12/01 09:37:20;;;;;;;2.90;2.60;;;;;;;-4.07;71.43;99746.47;6141223;29;20247;-75
2021/12/01 09:40:25;;;;;;;2.57;2.47;;;;;;;-4.16;71.25;99750.00;6140925;29;20484;-77
2021/12/01 09:43:31;;;;;;;2.53;2.33;;;;;;;-4.07;70.75;99751.78;6140612;29;20252;-75
2021/12/01 09:46:35;;;;;;;3.10;2.90;;;;;;;-3.96;70.00;99737.41;6124226;29;20205;-74
2021/12/01 09:49:41;;;;;;;2.97;2.23;;;;;;;-4.09;70.11;99761.75;6140403;29;20445;-74
2021/12/01 09:52:45;;;;;;;2.80;2.60;;;;;;;-4.07;68.47;99746.47;6139506;29;20204;-73
2021/12/01 09:55:50;;;;;;;2.23;2.03;;;;;;;-4.19;68.33;99742.34;6141383;29;20272;-75
2021/12/01 09:58:55;;;;;;;2.33;2.23;;;;;;;-4.15;67.97;99735.72;6140407;29;20432;-74
2021/12/01 10:01:59;;;;;;;2.10;2.07;;;;;;;-4.11;68.69;99734.41;6141786;29;20193;-74
2021/12/01 10:05:05;;;;;;;2.53;2.43;;;;;;;-4.14;68.43;99729.41;6140267;29;20195;-75
2021/12/01 10:08:17;;;;;;;2.63;2.53;;;;;;;-4.08;68.15;99731.44;6141093;29;20243;-75
2021/12/01 10:11:25;;;;;;;1.97;1.97;;;;;;;-4.07;68.29;99735.78;6141260;29;20214;-75
2021/12/01 10:14:29;;;;;;;2.33;2.27;;;;;;;-3.92;68.05;99728.13;6140343;29;20510;-74
2021/12/01 10:17:34;;;;;;;2.20;2.20;;;;;;;-3.89;68.00;99739.31;6141665;29;20189;-74
2021/12/01 10:20:41;;;;;;;2.73;2.63;;;;;;;-3.90;67.75;99726.97;6140949;29;20203;-74
2021/12/01 10:23:47;;;;;;;2.53;2.33;;;;;;;-3.77;67.40;99725.78;6141402;29;20190;-74
2021/12/01 10:26:54;;;;;;;4.67;2.80;;;;;;;-3.78;67.86;99730.25;6141559;29;20272;-75
2021/12/01 10:29:58;;;;;;;3.07;2.80;;;;;;;-3.75;68.07;99723.78;6140070;29;20448;-75
2021/12/01 10:33:14;;;;;;;4.90;2.70;;;;;;;-3.74;68.19;99730.78;6139973;29;20197;-75
2021/12/01 10:36:20;;;;;;;3.03;2.83;;;;;;;-3.57;67.23;99727.28;6140404;29;20201;-74
2021/12/01 10:39:24;;;;;;;4.53;2.63;;;;;;;-3.61;66.87;99728.56;6139897;29;20496;-74
2021/12/01 10:42:29;;;;;;;2.63;2.40;;;;;;;-3.54;66.87;99722.47;6141071;29;20201;-74
2021/12/01 10:45:35;;;;;;;3.53;2.07;;;;;;;-3.83;66.68;99725.38;6145795;29;20188;-73
2021/12/01 10:48:41;;;;;;;2.77;2.50;;;;;;;-3.88;67.27;99738.31;6144959;29;20196;-75
2021/12/01 10:51:47;;;;;;;2.50;2.40;;;;;;;-3.82;67.62;99724.38;6144534;29;20218;-74
2021/12/01 10:55:03;;;;;;;2.23;2.13;;;;;;;-3.75;67.70;99731.78;6145470;29;20255;-74
2021/12/01 10:58:08;;;;;;;3.23;2.93;;;;;;;-3.58;67.42;99728.25;6145404;29;20189;-75
2021/12/01 11:01:20;;;;;;;4.37;2.90;;;;;;;-3.59;67.73;99731.91;6145220;29;20192;-76
2021/12/01 11:04:42;;;;;;;3.00;2.80;;;;;;;-3.40;66.89;99729.06;6145524;29;20213;-75
2021/12/01 11:07:48;;;;;;;2.63;2.47;;;;;;;-3.35;66.75;99721.44;6145208;29;20289;-76
2021/12/01 11:10:55;;;;;;;7.90;3.00;;;;;;;-3.25;66.73;99732.84;6145216;29;20316;-76
2021/12/01 11:14:09;;;;;;;5.90;2.67;;;;;;;-3.21;66.38;99723.56;6143879;29;20380;-75
2021/12/01 11:17:13;;;;;;;6.93;2.27;;;;;;;-3.27;66.61;99718.84;6144995;29;20276;-75
2021/12/01 11:20:39;;;;;;;7.63;2.67;;;;;;;-3.34;67.18;99728.47;6144623;29;20257;-74
2021/12/01 11:23:46;;;;;;;5.23;3.27;;;;;;;-3.24;66.61;99723.88;6143926;29;20375;-75
2021/12/01 11:26:51;;;;;;;5.13;3.10;;;;;;;-3.13;66.58;99710.25;6144471;29;20229;-75
2021/12/01 11:30:15;;;;;;;4.33;2.50;;;;;;;-3.40;67.28;99705.06;6143724;29;20225;-75
2021/12/01 11:33:28;;;;;;;3.53;3.07;;;;;;;-3.25;66.76;99700.84;6144888;29;20199;-74
2021/12/01 11:36:35;;;;;;;3.37;2.90;;;;;;;-3.15;67.08;99706.91;6143413;29;20378;-74
2021/12/01 11:39:41;;;;;;;2.70;2.50;;;;;;;-3.30;66.87;99698.66;6144684;29;20190;-75
2021/12/01 11:42:45;;;;;;;3.60;2.30;;;;;;;-3.10;67.19;99687.75;6144297;29;20395;-76
2021/12/01 11:45:50;;;;;;;2.73;2.40;;;;;;;-3.21;67.34;99675.53;6144293;29;20258;-76
2021/12/01 11:48:58;;;;;;;2.90;2.60;;;;;;;-3.42;66.81;99672.41;6142908;29;20191;-75
2021/12/01 11:52:05;;;;;;;3.57;2.83;;;;;;;-3.32;67.35;99673.13;6143827;29;20277;-76
2021/12/01 11:55:10;;;;;;;6.37;2.57;;;;;;;-3.53;67.11;99672.66;6143844;29;20238;-76
2021/12/01 11:58:43;;;;;;;2.90;2.53;;;;;;;-3.47;67.01;99674.69;6142874;29;20417;-75
2021/12/01 12:01:52;;;;;;;3.37;2.57;;;;;;;-3.31;67.30;99666.78;6143876;29;20193;-76
2021/12/01 12:04:58;;;;;;;2.90;2.70;;;;;;;-3.20;66.76;99666.53;6143723;29;20301;-76
2021/12/01 12:08:05;;;;;;;7.83;3.00;;;;;;;-3.01;66.53;99655.66;6143555;29;20353;-76
2021/12/01 12:11:34;;;;;;;4.47;2.60;;;;;;;-2.84;65.78;99662.72;6143879;29;20326;-76
2021/12/01 12:14:48;;;;;;;2.30;2.20;;;;;;;-3.02;65.63;99664.63;6143990;29;20257;-75
2021/12/01 12:17:52;;;;;;;11.43;2.87;;;;;;;-3.13;66.08;99662.22;6144449;29;20238;-76
2021/12/01 12:21:14;;;;;;;6.90;2.93;;;;;;;-3.12;65.97;99663.91;6143976;29;20190;-76
2021/12/01 12:24:20;;;;;;;2.60;2.40;;;;;;;-3.02;66.35;99664.63;6142484;29;20194;-74
2021/12/01 12:27:37;;;;;;;12.27;2.87;;;;;;;-3.16;67.15;99674.06;6143419;29;20208;-74
2021/12/01 12:30:41;;;;;;;2.40;2.30;;;;;;;-3.46;66.88;99671.03;6143607;29;20269;-74
2021/12/01 12:33:51;;;;;;;2.70;2.60;;;;;;;-3.44;67.13;99664.53;6143047;29;20246;-75
2021/12/01 12:36:58;;;;;;;3.77;2.50;;;;;;;-3.41;67.14;99660.72;6142767;29;20190;-75
2021/12/01 12:40:07;;;;;;;3.80;2.53;;;;;;;-3.50;67.30;99648.34;6142692;29;20270;-75
2021/12/01 12:43:23;;;;;;;12.87;2.70;;;;;;;-3.54;68.10;99660.28;6142242;29;20225;-76
2021/12/01 12:46:32;;;;;;;3.10;2.80;;;;;;;-3.64;68.55;99662.22;6143162;29;20194;-75
2021/12/01 12:49:37;;;;;;;2.73;2.53;;;;;;;-3.57;68.67;99652.63;6142982;29;20189;-75
2021/12/01 12:52:43;;;;;;;5.70;2.50;;;;;;;-3.49;67.96;99656.16;6141581;29;20213;-74
2021/12/01 12:55:50;;;;;;;6.93;2.53;;;;;;;-3.67;67.89;99657.22;6142737;29;20192;-74
2021/12/01 12:59:18;;;;;;;2.87;2.77;;;;;;;-3.56;67.84;99648.94;6142273;29;20196;-74
2021/12/01 13:02:31;;;;;;;2.30;2.20;;;;;;;-3.76;68.75;99647.47;6141316;29;20488;-74
2021/12/01 13:05:38;;;;;;;2.57;2.47;;;;;;;-3.69;68.77;99652.03;6141934;29;20191;-74
2021/12/01 13:08:44;;;;;;;5.30;2.77;;;;;;;-3.77;68.78;99651.16;6141452;29;20527;-74
2021/12/01 13:11:57;;;;;;;11.33;2.63;;;;;;;-3.99;69.85;99647.97;6141658;29;20228;-74
2021/12/01 13:15:03;;;;;;;2.87;2.63;;;;;;;-3.91;69.62;99636.53;6142255;29;20195;-75
2021/12/01 13:18:12;;;;;;;9.77;2.77;;;;;;;-3.80;69.75;99637.13;6142606;29;20190;-75
2021/12/01 13:21:19;;;;;;;3.07;2.70;;;;;;;-3.89;69.28;99643.38;6141252;29;20190;-75
2021/12/01 13:24:23;;;;;;;2.20;2.10;;;;;;;-3.67;68.81;99641.22;6141122;29;20484;-75
2021/12/01 13:27:27;;;;;;;2.63;2.53;;;;;;;-3.81;69.23;99645.28;6142180;29;20212;-75
2021/12/01 13:30:35;;;;;;;2.50;2.30;;;;;;;-3.78;69.00;99636.97;6141334;29;20220;-76
2021/12/01 13:33:58;;;;;;;3.27;2.70;;;;;;;-3.87;69.79;99644.06;6140830;29;20524;-75
2021/12/01 13:37:06;;;;;;;2.67;2.47;;;;;;;-3.99;70.08;99625.81;6141873;29;20190;-76
2021/12/01 13:40:11;;;;;;;3.13;2.80;;;;;;;-3.94;69.85;99624.38;6141937;29;20190;-75
2021/12/01 13:43:20;;;;;;;3.57;2.40;;;;;;;-4.05;70.63;99616.59;6142288;29;20260;-76
2021/12/01 13:46:27;;;;;;;2.67;2.23;;;;;;;-3.80;69.69;99629.13;6141782;29;20222;-75
2021/12/01 13:49:39;;;;;;;2.80;2.27;;;;;;;-3.80;70.02;99620.31;6141867;29;20188;-76
2021/12/01 13:52:46;;;;;;;3.90;2.17;;;;;;;-3.89;70.22;99611.41;6140873;29;20221;-76
2021/12/01 13:55:51;;;;;;;2.70;2.50;;;;;;;-3.97;70.31;99619.34;6141898;29;20306;-75
2021/12/01 13:59:02;;;;;;;3.07;2.50;;;;;;;-4.02;70.42;99610.13;6141379;29;20296;-75
2021/12/01 14:02:07;;;;;;;6.23;2.50;;;;;;;-3.86;69.98;99627.09;6141026;29;20241;-75
2021/12/01 14:05:13;;;;;;;4.67;2.97;;;;;;;-3.89;70.33;99608.75;6124995;29;20209;-75
2021/12/01 14:08:32;;;;;;;3.60;2.93;;;;;;;-3.59;69.84;99606.59;6140497;29;20417;-75
2021/12/01 14:11:42;;;;;;;2.70;2.60;;;;;;;-3.77;69.53;99598.66;6140861;29;20214;-77
2021/12/01 14:14:48;;;;;;;2.60;2.50;;;;;;;-3.84;69.87;99587.81;6141250;29;20217;-76
2021/12/01 14:17:54;;;;;;;4.53;2.93;;;;;;;-3.80;70.18;99573.16;6142569;29;20577;-76
2021/12/01 14:21:12;;;;;;;2.90;2.63;;;;;;;-3.78;69.03;99574.84;6146157;29;20258;-76
2021/12/01 14:24:19;;;;;;;4.17;2.40;;;;;;;-3.95;70.07;99569.41;6146068;29;20289;-74
2021/12/01 14:27:26;;;;;;;2.97;2.20;;;;;;;-3.68;69.59;99559.59;6144966;29;20204;-75
2021/12/01 14:30:31;;;;;;;2.80;2.03;;;;;;;-3.55;69.27;99538.66;6146311;29;20193;-75
2021/12/01 14:33:36;;;;;;;2.50;2.40;;;;;;;-3.54;69.09;99545.66;6145720;29;20212;-75
2021/12/01 14:36:43;;;;;;;6.77;2.23;;;;;;;-3.56;69.70;99542.31;6145527;29;20189;-75
2021/12/01 14:39:47;;;;;;;2.50;2.27;;;;;;;-3.71;69.20;99543.91;6145878;29;20257;-75
2021/12/01 14:42:53;;;;;;;5.40;2.23;;;;;;;-3.94;70.10;99548.91;6145744;29;20203;-75